Archival Weather

Snohomish County (Paine Fld)

Everett, Washington (KPAE)

Report from: Thursday, November 2, 2023 1:02 AM PDT
Current time: Monday, June 17, 2024 12:59 AM PDT

Current weather – Weather history – Daily summaries
Weather forecast

Present weatherLight rain, mist
Temperature10.0°C (50.0°F)
Wind chill8.0°C (46.3°F)
Dew point8.9°C (48.0°F)
Winds 8 kts (4.1 m/s, 9.2 mph) Vrb
Wind gusts 19 kts (9.8 m/s, 21.9 mph)
Winds variableWinds variable from East (90°) to South (170°)
Visibility6 mi. (9.7 km)
Clouds Scattered clouds 1,200 ft. (366 m)
Ceiling: Broken clouds 5,000 ft. (1,524 m)
Overcast 9,000 ft. (2,743 m)
Altimeter29.81 in.Hg (1009 mB)
Precipitiation0.01 in. (0 mm)
Relative humidity93 %
Density altitude-308 ft. (-94 m)
Remarks Fully automated report
System requires maintenance
Automated weather observing station with precipitation discriminator
Flight conditions Visual Meteorological Conditions
Raw dataKPAE 020802Z AUTO 12008G19KT 090V170 6SM -RA BR SCT012 BKN050 OVC090 10/09 A2981 RMK AO2 P0001 T01000089 $
An error has occurred. This application may no longer respond until reloaded. Reload 🗙